Time;durP1;ratioP1;P1;durP2;ratioP2;P2;SDS_P1;SDS_P2;PMS_P1;PMS_P2;Temp;Humidity;BMP_temperature;BMP_pressure;BME280_temperature;BME280_humidity;BME280_pressure;Samples;Min_cycle;Max_cycle;Signal;HPM_P1;HPM_P2
2022/01/22 00:01:46;;;;;;;10.88;8.63;;;1.50;99.90;;;;;;5038912;28;20235;-84
2022/01/22 00:04:13;;;;;;;8.52;7.63;;;1.60;99.90;;;;;;5038912;28;20222;-83
2022/01/22 00:06:41;;;;;;;12.93;7.35;;;1.50;99.90;;;;;;5038074;28;20218;-84
2022/01/22 00:09:08;;;;;;;10.63;9.30;;;1.50;99.90;;;;;;5039733;28;20210;-84
2022/01/22 00:11:38;;;;;;;10.93;7.55;;;1.50;99.90;;;;;;5038402;28;20313;-83
2022/01/22 00:14:24;;;;;;;10.23;8.43;;;1.60;99.90;;;;;;5039163;28;20215;-84
2022/01/22 00:16:51;;;;;;;20.20;8.25;;;1.60;99.90;;;;;;5038837;28;20203;-84
2022/01/22 00:19:18;;;;;;;14.73;7.65;;;1.70;99.90;;;;;;5038545;28;20202;-84
2022/01/22 00:21:46;;;;;;;12.05;8.70;;;1.60;99.90;;;;;;5039559;28;20233;-83
2022/01/22 00:24:14;;;;;;;12.07;8.35;;;1.70;99.90;;;;;;5039343;28;20579;-84
2022/01/22 00:26:41;;;;;;;13.50;8.52;;;1.80;99.90;;;;;;5040206;28;20252;-84
2022/01/22 00:29:09;;;;;;;10.52;8.40;;;1.70;99.90;;;;;;5039865;28;20217;-84
2022/01/22 00:31:36;;;;;;;12.15;7.95;;;1.70;99.90;;;;;;5039153;28;20243;-84
2022/01/22 00:34:03;;;;;;;11.25;8.63;;;1.70;99.90;;;;;;5038985;28;20219;-82
2022/01/22 00:36:30;;;;;;;13.15;9.80;;;1.70;99.90;;;;;;5038894;28;20293;-84
2022/01/22 00:38:58;;;;;;;9.85;8.32;;;1.80;99.90;;;;;;5040195;28;20335;-83
2022/01/22 00:41:25;;;;;;;10.23;7.13;;;1.80;99.90;;;;;;5050148;28;20223;-82
2022/01/22 00:43:53;;;;;;;7.53;6.65;;;1.70;99.90;;;;;;5054018;28;20205;-84
2022/01/22 00:46:20;;;;;;;9.77;8.88;;;1.70;99.90;;;;;;5037868;28;20209;-82
2022/01/22 00:48:47;;;;;;;8.75;7.38;;;1.70;99.90;;;;;;5041919;28;20197;-82
2022/01/22 00:51:14;;;;;;;10.02;7.72;;;1.70;99.90;;;;;;5057957;28;20242;-84
2022/01/22 00:53:41;;;;;;;12.00;8.93;;;1.70;99.90;;;;;;5057599;28;20210;-84
2022/01/22 00:56:09;;;;;;;14.27;8.98;;;1.70;99.90;;;;;;5038864;28;20275;-83
2022/01/22 00:58:36;;;;;;;11.43;9.43;;;1.80;99.90;;;;;;5045006;28;20301;-82
2022/01/22 01:01:03;;;;;;;17.25;6.82;;;1.70;99.90;;;;;;5063783;28;20280;-84
2022/01/22 01:03:33;;;;;;;11.68;7.93;;;1.70;99.90;;;;;;5062964;28;20211;-84
2022/01/22 01:06:01;;;;;;;9.57;7.75;;;1.70;99.90;;;;;;5063744;28;20231;-81
2022/01/22 01:08:29;;;;;;;8.70;7.85;;;1.60;99.90;;;;;;5063100;28;20737;-82
2022/01/22 01:10:56;;;;;;;7.97;7.13;;;1.70;99.90;;;;;;5042852;28;20224;-81
2022/01/22 01:13:25;;;;;;;7.50;6.30;;;1.70;99.90;;;;;;5052072;28;20552;-84
2022/01/22 01:16:00;;;;;;;11.10;6.75;;;1.70;99.90;;;;;;5059299;28;20233;-84
2022/01/22 01:32:18;;;;;;;12.93;8.15;;;1.70;99.90;;;;;;5050400;28;20217;-84
2022/01/22 01:34:47;;;;;;;8.45;7.55;;;1.70;99.90;;;;;;5062689;28;20580;-81
2022/01/22 01:37:16;;;;;;;8.75;7.25;;;1.70;99.90;;;;;;5054837;28;20223;-84
2022/01/22 01:39:45;;;;;;;10.13;7.72;;;1.80;99.90;;;;;;5071290;28;20293;-82
2022/01/22 01:42:16;;;;;;;11.68;7.22;;;1.90;99.90;;;;;;5079808;28;20301;-83
2022/01/22 01:44:44;;;;;;;12.88;8.18;;;1.90;99.90;;;;;;5079918;28;20242;-81
2022/01/22 01:47:14;;;;;;;9.38;7.55;;;1.90;99.90;;;;;;5055473;28;20388;-84
2022/01/22 01:49:41;;;;;;;7.55;6.32;;;1.90;99.90;;;;;;5039715;28;20226;-84
2022/01/22 01:52:13;;;;;;;10.70;8.60;;;2.00;99.90;;;;;;5048508;28;20207;-85
2022/01/22 01:54:46;;;;;;;9.98;7.47;;;2.00;99.90;;;;;;5060168;28;20208;-81
2022/01/22 01:57:33;;;;;;;11.60;8.48;;;2.00;99.90;;;;;;5054399;28;20198;-81
2022/01/22 02:00:01;;;;;;;11.73;8.18;;;2.00;99.90;;;;;;5060481;28;20231;-81
2022/01/22 02:02:30;;;;;;;14.00;7.57;;;2.00;99.90;;;;;;5045475;28;20204;-82
2022/01/22 02:04:57;;;;;;;10.88;6.75;;;1.90;99.90;;;;;;5038792;28;20561;-83
2022/01/22 02:07:24;;;;;;;9.13;7.97;;;1.90;99.90;;;;;;5057686;28;20225;-82
2022/01/22 02:09:51;;;;;;;11.45;7.95;;;1.90;99.90;;;;;;5059910;28;20201;-82
2022/01/22 02:12:32;;;;;;;9.32;7.72;;;1.90;99.90;;;;;;5042285;28;20590;-81
2022/01/22 02:23:36;;;;;;;10.50;7.53;;;1.90;99.90;;;;;;4998150;28;20658;-83
2022/01/22 02:26:04;;;;;;;9.05;7.00;;;2.00;99.90;;;;;;4991529;28;20289;-82
2022/01/22 02:28:31;;;;;;;10.20;7.60;;;1.90;99.90;;;;;;5007136;28;20660;-82
2022/01/22 02:31:06;;;;;;;8.50;6.68;;;1.90;99.90;;;;;;5039515;28;20251;-82
2022/01/22 02:33:44;;;;;;;11.68;8.77;;;1.90;99.90;;;;;;5040203;28;20226;-80
2022/01/22 02:36:18;;;;;;;12.23;7.90;;;1.90;99.90;;;;;;5039662;28;20293;-81
2022/01/22 02:38:52;;;;;;;9.45;8.55;;;1.90;99.90;;;;;;5040432;28;20254;-80
2022/01/22 02:41:21;;;;;;;10.57;7.72;;;2.00;99.90;;;;;;5039545;28;20803;-81
2022/01/22 02:43:48;;;;;;;12.70;8.75;;;2.00;99.90;;;;;;5040497;28;20205;-81
2022/01/22 02:46:18;;;;;;;12.15;9.10;;;2.10;99.90;;;;;;5039305;28;20275;-81
2022/01/22 02:48:44;;;;;;;13.50;8.48;;;2.30;99.90;;;;;;5038640;28;20227;-82
2022/01/22 02:51:11;;;;;;;11.55;8.27;;;2.40;99.90;;;;;;5037587;28;20250;-82
2022/01/22 02:53:38;;;;;;;8.73;7.82;;;2.40;99.90;;;;;;5037746;28;20224;-84
2022/01/22 02:56:07;;;;;;;10.90;8.30;;;2.40;99.90;;;;;;5037350;28;20566;-82
2022/01/22 02:58:35;;;;;;;10.82;7.63;;;2.60;99.90;;;;;;5037497;28;20260;-82
2022/01/22 03:01:01;;;;;;;10.38;8.43;;;2.60;99.90;;;;;;5037548;28;20225;-82
2022/01/22 03:03:28;;;;;;;10.38;7.95;;;2.50;99.90;;;;;;5037133;28;20212;-82
2022/01/22 03:05:55;;;;;;;8.75;7.65;;;2.50;99.90;;;;;;5037213;28;20212;-82
2022/01/22 03:08:27;;;;;;;9.55;8.05;;;2.40;99.90;;;;;;5037048;28;20353;-82
2022/01/22 03:10:54;;;;;;;11.18;8.82;;;2.40;99.90;;;;;;5037753;28;20260;-81
2022/01/22 03:14:09;;;;;;;10.82;9.57;;;2.40;99.90;;;;;;5038537;28;20255;-82
2022/01/22 03:16:33;;;;;;;11.30;8.57;;;2.40;99.90;;;;;;5047632;28;20249;-81
2022/01/22 03:19:05;;;;;;;11.25;8.25;;;2.50;99.90;;;;;;5056360;28;20206;-81
2022/01/22 03:21:42;;;;;;;10.77;8.05;;;2.60;99.90;;;;;;5038374;28;20238;-81
2022/01/22 03:29:40;;;;;;;12.73;8.95;;;2.50;99.90;;;;;;5052098;28;20285;-84
2022/01/22 03:32:10;;;;;;;9.50;8.05;;;2.50;99.90;;;;;;5037640;28;20213;-83
2022/01/22 03:34:42;;;;;;;13.13;8.70;;;2.40;99.90;;;;;;5045952;28;20250;-83
2022/01/22 03:37:09;;;;;;;11.77;8.70;;;2.40;99.90;;;;;;5037844;28;20217;-84
2022/01/22 03:39:36;;;;;;;9.85;7.97;;;2.40;99.90;;;;;;5050862;28;20215;-83
2022/01/22 03:42:04;;;;;;;14.10;9.13;;;2.40;99.90;;;;;;5048130;28;20208;-84
2022/01/22 03:44:30;;;;;;;11.63;8.65;;;2.40;99.90;;;;;;5037568;28;20213;-83
2022/01/22 03:46:59;;;;;;;10.32;8.00;;;2.40;99.90;;;;;;5045622;28;20260;-83
2022/01/22 03:49:25;;;;;;;13.80;8.25;;;2.30;99.90;;;;;;5038343;28;20266;-84
2022/01/22 03:51:52;;;;;;;13.05;9.38;;;2.30;99.90;;;;;;5036822;28;20240;-83
2022/01/22 03:54:19;;;;;;;16.05;10.63;;;2.30;99.90;;;;;;5036860;28;20208;-83
2022/01/22 03:56:47;;;;;;;12.07;8.45;;;2.30;99.90;;;;;;5043627;28;20209;-84
2022/01/22 03:59:14;;;;;;;14.90;9.32;;;2.20;99.90;;;;;;5036674;28;20270;-82
2022/01/22 04:02:08;;;;;;;9.88;8.52;;;2.30;99.90;;;;;;5035698;28;20226;-82
2022/01/22 04:04:39;;;;;;;11.45;8.10;;;2.20;99.90;;;;;;5036086;28;20191;-82
2022/01/22 04:07:36;;;;;;;13.43;10.93;;;2.20;99.90;;;;;;5035509;28;20194;-83
2022/01/22 04:10:05;;;;;;;15.75;9.30;;;2.20;99.90;;;;;;5039727;28;20313;-82
2022/01/22 04:12:40;;;;;;;11.25;9.35;;;2.20;99.90;;;;;;5048188;28;20204;-81
2022/01/22 04:15:10;;;;;;;14.40;9.13;;;2.20;99.90;;;;;;5040701;28;20207;-81
2022/01/22 04:25:57;;;;;;;13.25;10.50;;;2.30;99.90;;;;;;5054531;28;20210;-85
2022/01/22 04:28:24;;;;;;;11.23;8.30;;;2.40;99.90;;;;;;5056520;28;20238;-82
2022/01/22 04:30:51;;;;;;;8.95;8.02;;;2.30;99.90;;;;;;5056217;28;20227;-81
2022/01/22 04:33:18;;;;;;;12.75;9.10;;;2.40;99.90;;;;;;5057417;28;20209;-81
2022/01/22 04:35:46;;;;;;;10.02;9.13;;;2.30;99.90;;;;;;5040844;28;20204;-84
2022/01/22 04:38:13;;;;;;;10.82;7.60;;;2.20;99.90;;;;;;5037649;28;20212;-85
2022/01/22 04:40:39;;;;;;;12.15;7.85;;;2.20;99.90;;;;;;5051513;28;20231;-84
2022/01/22 04:43:06;;;;;;;10.70;8.05;;;2.20;99.90;;;;;;5057268;28;20208;-85
2022/01/22 04:45:46;;;;;;;12.60;8.45;;;2.20;99.90;;;;;;5053105;28;20214;-82
2022/01/22 04:48:26;;;;;;;13.23;9.82;;;2.20;99.90;;;;;;5054290;28;20225;-82
2022/01/22 04:56:23;;;;;;;13.00;10.35;;;2.40;99.90;;;;;;5057079;28;20231;-81
2022/01/22 04:58:49;;;;;;;11.85;10.60;;;2.40;99.90;;;;;;5053193;28;20195;-81
2022/01/22 05:01:16;;;;;;;11.90;8.07;;;2.40;99.90;;;;;;5036804;28;20236;-81
2022/01/22 05:03:43;;;;;;;12.70;9.40;;;2.50;99.90;;;;;;5042500;28;20205;-81
2022/01/22 05:06:11;;;;;;;12.35;9.00;;;2.40;99.90;;;;;;5056809;28;20213;-81
2022/01/22 05:08:38;;;;;;;11.63;8.70;;;2.50;99.90;;;;;;5053285;28;20213;-81
2022/01/22 05:11:05;;;;;;;9.98;8.77;;;2.50;99.90;;;;;;5047881;28;20221;-81
2022/01/22 05:13:31;;;;;;;13.60;8.13;;;2.50;99.90;;;;;;5057912;28;20204;-81
2022/01/22 05:15:58;;;;;;;13.73;9.63;;;2.50;99.90;;;;;;5041025;28;20215;-81
2022/01/22 05:18:25;;;;;;;9.32;8.15;;;2.50;99.90;;;;;;5051019;28;20203;-81
2022/01/22 05:21:00;;;;;;;9.80;8.80;;;2.60;99.90;;;;;;5060059;28;20265;-81
2022/01/22 05:23:29;;;;;;;11.98;8.55;;;2.70;99.90;;;;;;5049079;28;20248;-81
2022/01/22 05:25:59;;;;;;;9.27;8.13;;;2.60;99.90;;;;;;5040357;28;20210;-81
2022/01/22 05:31:24;;;;;;;9.85;8.23;;;2.70;99.90;;;;;;5050594;28;20308;-83
2022/01/22 05:39:21;;;;;;;10.63;8.75;;;2.70;99.90;;;;;;5059251;28;20202;-83
2022/01/22 05:41:48;;;;;;;8.88;7.35;;;2.70;99.90;;;;;;5058389;28;20243;-82
2022/01/22 05:44:15;;;;;;;12.63;9.75;;;2.70;99.90;;;;;;5059994;28;20205;-83
2022/01/22 05:46:41;;;;;;;10.15;9.05;;;2.70;99.90;;;;;;5058231;28;20216;-82
2022/01/22 05:49:08;;;;;;;12.70;8.48;;;2.70;99.90;;;;;;5058930;28;20231;-82
2022/01/22 05:51:37;;;;;;;15.00;9.05;;;2.80;99.90;;;;;;5057016;28;20239;-85
2022/01/22 05:59:40;;;;;;;11.52;8.95;;;3.30;99.90;;;;;;5060471;28;20228;-84
2022/01/22 06:02:08;;;;;;;10.25;8.10;;;3.20;99.90;;;;;;5054646;28;20201;-85
2022/01/22 06:04:36;;;;;;;14.38;9.80;;;3.20;99.90;;;;;;5040432;28;20688;-83
2022/01/22 06:07:04;;;;;;;10.80;9.32;;;3.20;99.90;;;;;;5043798;28;20205;-85
2022/01/22 06:09:31;;;;;;;11.95;8.77;;;3.20;99.90;;;;;;5059681;28;20241;-85
2022/01/22 06:12:14;;;;;;;14.80;10.05;;;3.30;99.90;;;;;;5057257;28;20303;-85
2022/01/22 06:14:41;;;;;;;10.10;8.75;;;3.30;99.90;;;;;;5040245;28;20666;-85
2022/01/22 06:17:08;;;;;;;10.02;8.90;;;3.30;99.90;;;;;;5041564;28;20589;-83
2022/01/22 06:19:35;;;;;;;11.95;10.10;;;3.20;99.90;;;;;;5039469;28;20205;-85
2022/01/22 06:22:01;;;;;;;12.18;10.13;;;3.10;99.90;;;;;;5050884;28;20213;-82
2022/01/22 06:24:28;;;;;;;14.45;10.30;;;3.10;99.90;;;;;;5055027;28;20211;-85
2022/01/22 06:26:55;;;;;;;11.38;8.68;;;3.10;99.90;;;;;;5039881;28;20208;-85
2022/01/22 06:29:23;;;;;;;11.93;9.75;;;3.00;99.90;;;;;;5042923;28;20692;-85
2022/01/22 06:31:50;;;;;;;14.05;9.63;;;2.80;99.90;;;;;;5053662;28;20231;-83
2022/01/22 06:34:16;;;;;;;12.50;8.80;;;2.60;99.90;;;;;;5041183;28;20210;-85
2022/01/22 06:36:43;;;;;;;11.73;9.15;;;2.50;99.90;;;;;;5044504;28;20579;-85
2022/01/22 06:39:12;;;;;;;14.60;9.88;;;2.40;99.90;;;;;;5039931;28;20279;-84
2022/01/22 06:41:46;;;;;;;9.00;7.97;;;2.30;99.90;;;;;;5054375;28;20302;-81
2022/01/22 06:44:15;;;;;;;15.85;9.27;;;2.30;99.90;;;;;;5058462;28;20211;-81
2022/01/22 06:46:44;;;;;;;11.77;8.18;;;2.30;99.90;;;;;;5058779;28;20198;-84
2022/01/22 06:49:10;;;;;;;14.95;10.45;;;2.30;99.90;;;;;;5058961;28;20234;-84
2022/01/22 06:51:38;;;;;;;12.52;8.95;;;2.30;99.90;;;;;;5057606;28;20225;-84
2022/01/22 06:54:06;;;;;;;11.88;9.90;;;2.30;99.90;;;;;;5058181;28;20215;-84
2022/01/22 06:56:33;;;;;;;17.25;11.20;;;2.30;99.90;;;;;;5039341;28;20224;-84
2022/01/22 06:59:01;;;;;;;14.73;9.85;;;2.30;99.90;;;;;;5042179;28;20198;-84
2022/01/22 07:01:28;;;;;;;13.23;11.30;;;2.40;99.90;;;;;;5038999;28;20248;-84
2022/01/22 07:03:57;;;;;;;13.93;11.38;;;2.40;99.90;;;;;;5039105;28;20693;-81
2022/01/22 07:06:24;;;;;;;15.50;11.88;;;2.50;99.90;;;;;;5041987;28;20219;-81
2022/01/22 07:08:51;;;;;;;15.73;10.07;;;2.50;99.90;;;;;;5058949;28;20235;-81
2022/01/22 07:11:18;;;;;;;17.00;11.02;;;2.60;99.90;;;;;;5056447;28;20233;-81
2022/01/22 07:13:45;;;;;;;14.02;9.93;;;2.60;99.90;;;;;;5038915;28;20215;-83
2022/01/22 07:16:12;;;;;;;10.80;8.40;;;2.70;99.90;;;;;;5057755;28;20204;-85
2022/01/22 07:18:39;;;;;;;13.75;10.25;;;2.60;99.90;;;;;;5058591;28;20207;-83
2022/01/22 07:21:16;;;;;;;12.73;10.05;;;2.70;99.90;;;;;;5039864;28;20234;-85
2022/01/22 07:26:24;;;;;;;14.52;11.80;;;2.90;99.90;;;;;;5045143;28;20202;-85
2022/01/22 07:28:50;;;;;;;15.15;10.68;;;2.70;99.90;;;;;;5050490;28;20221;-85
2022/01/22 07:31:23;;;;;;;15.63;11.23;;;2.60;99.90;;;;;;5037223;28;20228;-83
2022/01/22 07:33:50;;;;;;;14.07;11.05;;;2.70;99.90;;;;;;5048019;28;20205;-81
2022/01/22 07:36:18;;;;;;;11.82;9.75;;;2.70;99.90;;;;;;5058255;28;20676;-80
2022/01/22 07:38:46;;;;;;;13.60;11.70;;;2.80;99.90;;;;;;5049647;28;20237;-80
2022/01/22 07:41:12;;;;;;;14.48;11.10;;;2.80;99.90;;;;;;5038378;28;20325;-81
2022/01/22 07:43:40;;;;;;;13.13;9.57;;;2.90;99.90;;;;;;5039568;28;20204;-81
2022/01/22 07:46:08;;;;;;;14.70;10.38;;;2.80;99.90;;;;;;5038044;28;20583;-84
2022/01/22 07:48:35;;;;;;;12.40;9.65;;;2.80;99.90;;;;;;5056369;28;20600;-84
2022/01/22 07:51:02;;;;;;;14.43;11.18;;;2.90;99.90;;;;;;5064360;28;20723;-81
2022/01/22 07:53:30;;;;;;;16.88;9.45;;;3.10;99.90;;;;;;5047443;28;20202;-80
2022/01/22 07:55:56;;;;;;;13.65;11.23;;;3.10;99.90;;;;;;5054148;28;20579;-80
2022/01/22 07:58:23;;;;;;;14.88;10.50;;;3.00;99.90;;;;;;5054090;28;20209;-80
2022/01/22 08:00:50;;;;;;;12.90;11.40;;;2.90;99.90;;;;;;5054897;28;20319;-80
2022/01/22 08:03:17;;;;;;;15.27;10.93;;;3.00;99.90;;;;;;5070013;28;20195;-80
2022/01/22 08:05:44;;;;;;;16.10;11.00;;;2.90;99.90;;;;;;5072089;28;20219;-80
2022/01/22 08:08:11;;;;;;;16.33;12.15;;;3.10;99.90;;;;;;5057578;28;20204;-80
2022/01/22 08:10:39;;;;;;;15.50;9.82;;;3.20;99.90;;;;;;5071605;28;20324;-80
2022/01/22 08:13:06;;;;;;;16.83;11.05;;;3.30;99.90;;;;;;5058811;28;20201;-80
2022/01/22 08:15:33;;;;;;;16.90;10.05;;;3.30;99.90;;;;;;5070929;28;20207;-80
2022/01/22 08:18:00;;;;;;;13.82;10.18;;;3.30;99.90;;;;;;5058205;28;20603;-80
2022/01/22 08:20:27;;;;;;;15.55;11.27;;;3.20;99.90;;;;;;5069821;28;20248;-80
2022/01/22 08:22:54;;;;;;;12.55;9.77;;;3.30;99.90;;;;;;5069210;28;20212;-80
2022/01/22 08:25:21;;;;;;;16.15;9.55;;;3.10;99.90;;;;;;5068195;28;20213;-80
2022/01/22 08:30:37;;;;;;;12.88;9.73;;;3.10;99.90;;;;;;5025462;28;20237;-80
2022/01/22 08:33:31;;;;;;;18.17;11.18;;;3.10;99.90;;;;;;5073503;28;20209;-81
2022/01/22 08:35:55;;;;;;;13.70;9.77;;;3.10;99.90;;;;;;5064344;28;20209;-80
2022/01/22 08:38:23;;;;;;;14.47;10.80;;;3.20;99.90;;;;;;5054509;28;20193;-81
2022/01/22 08:40:49;;;;;;;14.75;10.10;;;3.30;99.90;;;;;;5060047;28;20464;-81
2022/01/22 08:43:18;;;;;;;12.43;11.02;;;3.30;99.90;;;;;;5065830;28;20207;-82
2022/01/22 08:45:49;;;;;;;15.98;11.38;;;3.30;99.90;;;;;;5071112;28;20562;-81
2022/01/22 08:48:16;;;;;;;15.18;10.32;;;3.40;99.90;;;;;;5059818;28;20221;-80
2022/01/22 08:50:42;;;;;;;12.73;10.38;;;3.40;99.90;;;;;;5070043;28;20287;-82
2022/01/22 08:53:09;;;;;;;19.27;11.40;;;3.50;99.90;;;;;;5076595;28;20203;-82
2022/01/22 08:55:36;;;;;;;13.50;11.40;;;3.30;99.90;;;;;;5074193;28;20190;-81
2022/01/22 08:58:04;;;;;;;13.70;11.90;;;3.40;99.90;;;;;;5068031;28;20219;-81
2022/01/22 09:00:32;;;;;;;12.10;10.85;;;3.30;99.90;;;;;;5050790;28;20703;-82
2022/01/22 09:02:59;;;;;;;17.50;11.60;;;3.10;99.90;;;;;;5046910;28;20206;-82
2022/01/22 09:05:32;;;;;;;20.33;12.52;;;2.80;99.90;;;;;;5061629;28;20209;-83
2022/01/22 09:07:59;;;;;;;14.38;10.90;;;2.90;99.90;;;;;;5056025;28;20233;-82
2022/01/22 09:10:26;;;;;;;14.23;11.63;;;3.00;99.90;;;;;;5042967;28;20226;-82
2022/01/22 09:12:53;;;;;;;16.60;11.18;;;2.90;99.90;;;;;;5060545;28;20202;-83
2022/01/22 09:15:20;;;;;;;14.82;11.98;;;2.80;99.90;;;;;;5059966;28;20206;-82
2022/01/22 09:17:48;;;;;;;17.33;12.40;;;2.90;99.90;;;;;;5071232;28;20211;-82
2022/01/22 09:20:30;;;;;;;17.02;12.98;;;2.90;99.90;;;;;;5065897;28;20224;-82
2022/01/22 09:22:58;;;;;;;14.27;12.80;;;2.80;99.90;;;;;;5067501;28;20327;-83
2022/01/22 09:25:25;;;;;;;17.30;12.20;;;2.90;99.90;;;;;;5070553;28;20241;-83
2022/01/22 09:27:52;;;;;;;18.80;12.55;;;2.90;99.90;;;;;;5068890;28;20313;-82
2022/01/22 09:30:19;;;;;;;15.32;10.70;;;3.00;99.90;;;;;;5077574;28;20225;-81
2022/01/22 09:32:48;;;;;;;20.13;11.32;;;3.10;99.90;;;;;;5069856;28;20263;-82
2022/01/22 09:35:14;;;;;;;20.10;12.75;;;3.10;99.90;;;;;;5072835;28;20208;-82
2022/01/22 09:37:41;;;;;;;15.82;12.30;;;3.10;99.90;;;;;;5074643;28;20200;-82
2022/01/22 09:40:09;;;;;;;18.83;12.98;;;3.20;99.90;;;;;;5079151;28;20918;-82
2022/01/22 09:42:36;;;;;;;20.40;12.15;;;3.10;99.90;;;;;;5084701;28;20203;-80
2022/01/22 09:45:04;;;;;;;19.00;11.00;;;3.10;99.90;;;;;;5076911;28;20210;-80
2022/01/22 09:47:32;;;;;;;18.15;13.32;;;3.20;99.90;;;;;;5073175;28;20203;-80
2022/01/22 09:50:00;;;;;;;18.80;12.50;;;3.00;99.90;;;;;;5071936;28;20238;-79
2022/01/22 09:52:27;;;;;;;15.13;10.95;;;3.10;99.90;;;;;;5071253;28;20649;-80
2022/01/22 09:54:54;;;;;;;19.27;11.25;;;3.10;99.90;;;;;;5066855;28;20564;-81
2022/01/22 09:57:21;;;;;;;20.85;12.20;;;3.20;99.90;;;;;;5075971;28;20211;-80
2022/01/22 09:59:48;;;;;;;20.05;13.10;;;3.30;99.90;;;;;;5079031;28;20562;-81
2022/01/22 10:02:16;;;;;;;14.40;12.65;;;3.30;99.90;;;;;;5071384;28;20201;-80
2022/01/22 10:04:45;;;;;;;19.60;11.38;;;3.30;99.90;;;;;;5079774;28;20670;-81
2022/01/22 10:07:18;;;;;;;18.25;12.73;;;3.40;99.90;;;;;;5064576;28;20650;-81
2022/01/22 10:09:58;;;;;;;19.85;14.20;;;3.40;99.90;;;;;;5063072;28;20212;-81
2022/01/22 10:12:27;;;;;;;18.40;13.50;;;3.30;99.90;;;;;;5041285;28;20212;-80
2022/01/22 10:15:06;;;;;;;14.35;11.35;;;3.40;99.90;;;;;;5057406;28;20240;-81
2022/01/22 10:17:40;;;;;;;15.30;12.55;;;3.40;99.90;;;;;;5067080;28;20212;-79
2022/01/22 10:20:27;;;;;;;17.88;13.00;;;3.30;99.90;;;;;;5067834;28;20214;-79
2022/01/22 10:22:58;;;;;;;13.23;11.90;;;3.20;99.90;;;;;;5070718;28;20208;-80
2022/01/22 10:25:29;;;;;;;15.98;11.75;;;3.30;99.90;;;;;;5069337;28;20201;-79
2022/01/22 10:27:57;;;;;;;17.10;12.90;;;3.30;99.90;;;;;;5073698;28;20235;-79
2022/01/22 10:30:34;;;;;;;16.05;12.85;;;3.20;99.90;;;;;;5053690;28;20239;-79
2022/01/22 10:33:07;;;;;;;18.48;14.13;;;3.10;99.90;;;;;;5045228;28;20602;-79
2022/01/22 10:35:35;;;;;;;20.02;14.20;;;3.10;99.90;;;;;;5043684;28;20205;-79
2022/01/22 10:38:04;;;;;;;15.80;12.18;;;3.10;99.90;;;;;;5044861;28;20212;-79
2022/01/22 10:40:33;;;;;;;15.77;11.63;;;3.20;99.90;;;;;;5047400;28;20220;-79
2022/01/22 10:43:12;;;;;;;18.73;11.95;;;3.10;99.90;;;;;;5043211;28;20215;-79
2022/01/22 10:45:41;;;;;;;16.55;11.93;;;3.20;99.90;;;;;;5045076;28;20205;-79
2022/01/22 10:48:20;;;;;;;19.02;14.65;;;3.30;99.90;;;;;;5050311;28;20197;-79
2022/01/22 10:51:01;;;;;;;21.83;13.77;;;3.40;99.90;;;;;;5060924;28;20232;-79
2022/01/22 10:53:42;;;;;;;21.48;13.40;;;3.50;99.90;;;;;;5042670;28;20262;-82
2022/01/22 10:56:11;;;;;;;15.63;13.90;;;3.60;99.90;;;;;;5045610;28;20587;-82
2022/01/22 10:58:52;;;;;;;18.45;14.35;;;3.50;99.90;;;;;;5058981;28;20210;-82
2022/01/22 11:01:19;;;;;;;22.30;12.10;;;3.50;99.90;;;;;;5053769;28;20718;-82
2022/01/22 11:03:45;;;;;;;13.63;10.90;;;3.60;99.90;;;;;;5058723;28;20207;-82
2022/01/22 11:06:27;;;;;;;15.85;11.60;;;3.70;99.90;;;;;;5056322;28;20212;-80
2022/01/22 11:08:56;;;;;;;21.08;11.65;;;3.70;99.90;;;;;;5057284;28;20204;-82
2022/01/22 11:11:24;;;;;;;14.55;10.93;;;3.60;99.90;;;;;;5051397;28;20234;-82
2022/01/22 11:13:50;;;;;;;16.75;11.00;;;3.70;99.90;;;;;;5036717;28;20206;-80
2022/01/22 11:16:18;;;;;;;11.38;10.18;;;3.70;99.90;;;;;;5037072;28;20204;-81
2022/01/22 11:18:48;;;;;;;14.32;10.50;;;3.60;99.90;;;;;;5036164;28;20210;-81
2022/01/22 11:21:16;;;;;;;12.60;11.32;;;3.70;99.90;;;;;;5051878;28;20217;-81
2022/01/22 11:23:44;;;;;;;13.48;10.35;;;3.70;99.90;;;;;;5040866;28;20703;-81
2022/01/22 11:26:14;;;;;;;15.18;12.07;;;3.70;99.90;;;;;;5046064;28;20206;-81
2022/01/22 11:28:41;;;;;;;14.15;10.75;;;3.80;99.90;;;;;;5040584;28;20210;-81
2022/01/22 11:31:10;;;;;;;11.05;9.77;;;3.80;99.90;;;;;;5037757;28;20229;-81
2022/01/22 11:33:41;;;;;;;15.02;10.45;;;3.80;99.90;;;;;;5043280;28;20208;-81
2022/01/22 11:36:14;;;;;;;12.25;10.45;;;3.80;99.90;;;;;;5039859;28;20206;-81
2022/01/22 11:38:49;;;;;;;13.48;9.73;;;3.90;99.90;;;;;;5040146;28;20213;-81
2022/01/22 11:41:21;;;;;;;14.27;11.07;;;3.80;99.90;;;;;;5039986;28;20228;-81
2022/01/22 11:44:10;;;;;;;15.50;10.90;;;3.90;99.90;;;;;;5041010;28;20213;-81
2022/01/22 11:46:41;;;;;;;13.00;11.60;;;3.90;99.90;;;;;;5039686;28;20209;-81
2022/01/22 11:49:18;;;;;;;18.50;14.40;;;3.90;99.90;;;;;;5039466;28;20668;-82
2022/01/22 11:51:47;;;;;;;16.30;13.43;;;3.90;99.90;;;;;;5040243;28;20321;-81
2022/01/22 11:54:14;;;;;;;15.40;12.60;;;3.90;99.90;;;;;;5038460;28;20300;-82
2022/01/22 11:56:52;;;;;;;17.92;14.13;;;4.10;99.90;;;;;;5037045;28;20288;-81
2022/01/22 11:59:37;;;;;;;14.90;13.35;;;4.30;99.90;;;;;;5037456;28;20206;-81
2022/01/22 12:02:07;;;;;;;15.75;11.77;;;4.30;99.90;;;;;;5037033;28;20221;-81
2022/01/22 12:05:02;;;;;;;15.55;13.68;;;4.50;99.90;;;;;;5040150;28;20214;-81
2022/01/22 12:07:35;;;;;;;14.65;13.10;;;4.60;99.90;;;;;;5041778;28;20233;-81
2022/01/22 12:16:16;;;;;;;16.05;11.93;;;4.50;99.90;;;;;;5041875;28;20221;-81
2022/01/22 12:18:55;;;;;;;13.52;11.90;;;4.50;99.90;;;;;;5045731;28;20210;-81
2022/01/22 12:21:36;;;;;;;18.45;9.80;;;4.40;99.90;;;;;;5047688;28;20254;-81
2022/01/22 12:24:09;;;;;;;11.75;10.15;;;4.40;99.90;;;;;;5040521;28;20199;-82
2022/01/22 12:26:57;;;;;;;10.77;9.60;;;4.20;99.90;;;;;;5040683;28;20238;-82
2022/01/22 12:29:42;;;;;;;12.95;9.25;;;4.10;99.90;;;;;;5039594;28;20696;-82
2022/01/22 12:32:16;;;;;;;12.15;8.73;;;4.10;99.90;;;;;;5037018;28;20280;-81
2022/01/22 12:35:09;;;;;;;14.73;9.77;;;4.20;99.90;;;;;;5038150;28;20225;-82
2022/01/22 12:37:49;;;;;;;10.85;8.18;;;4.20;99.90;;;;;;5038432;28;20224;-82
2022/01/22 12:40:33;;;;;;;15.65;10.45;;;4.10;99.90;;;;;;5039547;28;20257;-82
2022/01/22 12:43:08;;;;;;;11.27;7.95;;;4.10;99.90;;;;;;5040031;28;20747;-81
2022/01/22 12:45:39;;;;;;;10.50;6.57;;;4.00;99.90;;;;;;5038933;28;20297;-82
2022/01/22 12:48:06;;;;;;;10.95;7.25;;;4.00;99.90;;;;;;5041259;28;20210;-81
2022/01/22 12:50:37;;;;;;;7.03;6.32;;;3.90;99.90;;;;;;5039475;28;20237;-82
2022/01/22 12:53:13;;;;;;;8.60;7.65;;;3.90;99.90;;;;;;5041248;28;20211;-82
2022/01/22 12:58:38;;;;;;;9.18;8.00;;;4.00;99.90;;;;;;5037437;28;20197;-81
2022/01/22 13:01:16;;;;;;;8.98;7.95;;;4.00;99.90;;;;;;5035458;28;20234;-81
2022/01/22 13:03:44;;;;;;;11.13;7.25;;;4.00;99.90;;;;;;5037263;28;20293;-82
2022/01/22 13:06:11;;;;;;;5.68;5.18;;;4.00;99.90;;;;;;5038436;28;20843;-82
2022/01/22 13:08:38;;;;;;;6.97;5.03;;;4.00;99.90;;;;;;5040717;28;20217;-81
2022/01/22 13:11:08;;;;;;;6.28;5.40;;;3.90;99.90;;;;;;5039787;28;20240;-81
2022/01/22 13:13:36;;;;;;;5.78;5.18;;;4.00;99.90;;;;;;5040723;28;20244;-81
2022/01/22 13:16:04;;;;;;;6.70;5.45;;;4.00;99.90;;;;;;5039892;28;20300;-82
2022/01/22 13:18:41;;;;;;;7.50;6.15;;;4.00;99.90;;;;;;5042302;28;20209;-81
2022/01/22 13:21:09;;;;;;;7.28;4.18;;;4.00;99.90;;;;;;5039903;28;20226;-81
2022/01/22 13:23:37;;;;;;;6.53;5.28;;;4.10;99.90;;;;;;5039870;28;20210;-82
2022/01/22 13:26:04;;;;;;;5.90;5.32;;;4.00;99.90;;;;;;5038059;28;20220;-81
2022/01/22 13:28:33;;;;;;;6.30;5.70;;;4.10;99.90;;;;;;5038906;28;20234;-82
2022/01/22 13:31:04;;;;;;;11.50;7.97;;;4.10;99.90;;;;;;5042810;28;20236;-81
2022/01/22 13:33:38;;;;;;;8.02;7.03;;;4.10;99.90;;;;;;5055429;28;20211;-81
2022/01/22 13:36:17;;;;;;;10.43;8.18;;;4.10;99.90;;;;;;5058689;28;20674;-81
2022/01/22 13:39:08;;;;;;;11.60;8.93;;;4.20;99.90;;;;;;5063084;28;20742;-82
2022/01/22 13:49:50;;;;;;;8.30;6.40;;;3.90;99.90;;;;;;5075978;28;20188;-82
2022/01/22 13:52:19;;;;;;;10.02;6.47;;;3.90;99.90;;;;;;5054623;28;20190;-80
2022/01/22 13:54:48;;;;;;;9.27;6.80;;;3.90;99.90;;;;;;5059851;28;20207;-81
2022/01/22 13:57:17;;;;;;;10.18;8.80;;;3.90;99.90;;;;;;5059939;28;20757;-82
2022/01/22 13:59:46;;;;;;;9.40;7.53;;;3.90;99.90;;;;;;5060701;28;20588;-82
2022/01/22 14:02:29;;;;;;;8.52;6.95;;;3.90;99.90;;;;;;5051415;28;20190;-83
2022/01/22 14:05:02;;;;;;;15.80;10.93;;;3.90;99.90;;;;;;5039751;28;20674;-82
2022/01/22 14:07:35;;;;;;;7.65;6.95;;;3.90;99.90;;;;;;5048377;28;20209;-81
2022/01/22 14:10:04;;;;;;;11.63;8.82;;;4.00;99.90;;;;;;5057740;28;20224;-82
2022/01/22 14:12:37;;;;;;;8.20;6.45;;;3.90;99.90;;;;;;5040800;28;20271;-82
2022/01/22 14:15:12;;;;;;;5.68;4.95;;;3.90;99.90;;;;;;5040767;28;20308;-82
2022/01/22 14:18:05;;;;;;;9.38;6.97;;;3.70;99.90;;;;;;5059386;28;20608;-81
2022/01/22 14:20:32;;;;;;;8.75;7.03;;;3.80;99.90;;;;;;5053165;28;20249;-82